Portada
METAR-TAF:

METAR-TAF

Aeropuertos :

Kununurra, Australia

latitud: 15-46S, longitud: 128-42E, altitud: 44 m

Observación

El informe se hizo hace 37 minutos, a las 21:00 UTC
Viento calma
Temperatura 10°C
Humedad 87%
Presión 1014 hPa
Visibilidad 10 km o más

METAR: YPKU 232100Z AUTO 00000KT 9999 // NCD 10/08 Q1014 RF00.0/000.0

Hora: 05:37 (21:37 UTC)

Pronóstico

El informe se hizo hace 3 horas y 21 minutos, a las 18:16 UTC
Pronóstico válido del 23 a las 20 UTC al 24 a las 08 UTC
Viento 4 kt del sur-sureste
Visibilidad 10 km o más
sin nubes por debajo de 1500 m y sin presencia de cumulonimbus.
A partir de las 24 a las 0300 UTC
Viento 8 kt del norte-noreste
Visibilidad 10 km o más
sin nubes por debajo de 1500 m y sin presencia de cumulonimbus.

TAF: YPKU 231816Z 2320/2408 15004KT CAVOK FM240300 03008KT CAVOK

Observaciones y pronósticos meteorológicos de más de 4000 aeropuertos (mensajes METAR y TAF).

Los puntos amarillos y rojos representan las estaciones disponibles.

Ponga el ratón en el punto deseado para ver el nombre de la estación.

Haga clic para ver las observaciones y los pronósticos meteorológicos.

Para cambiar el mapa : haga clic en los botones verdes con una cruz de color negro para hacer un zoom, en el botón verde con un guión para alejar o en las flechas verdes para mapas adyacentes.


METAR-TAF: